Main page
METAR-TAF:

METAR-TAF

Airports :

Sundsvall–Timrå Airport

Sundsvall-Härnösand, Sweden

latitude: 62-32N, longitude: 017-27E, elevation: 4 m

Current weather observation

The report was made 22 minutes ago, at 09:20 UTC
Wind 14 kt from the West/Northwest
Temperature 2°C
Humidity 60%
Pressure 998 hPa
Visibility 10 km or more
no clouds below 1500 m and no cumulonimbus

METAR: ESNN 240920Z 30014KT CAVOK 02/M05 Q0998 R16/09//95

Time: 10:42 (09:42 UTC)

Forecast

The report was made 1 hour and 12 minutes ago, at 08:30 UTC
Forecast valid from 24 at 09 UTC to 24 at 18 UTC
Wind 8 kt from the West/Northwest
Visibility 10 km or more
no clouds below 1500 m and no cumulonimbus

TAF: ESNN 240830Z 2409/2418 30008KT CAVOK

Weather observations and forecasts of more than 4000 airports (METAR and TAF reports).

The available stations are represented by yellow and red dots on the map.

Hover mouse over dot to see the name of the station.

Then click to see weather observations and forecasts.

To change the map : click on the green buttons with a black cross to zoom in, on the green button with a dash to zoom out, or on the green arrows for adjacent maps.


METAR-TAF: